sensor_id;sensor_type;location;lat;lon;timestamp;temperature;humidity
21678;DHT22;11000;50.360;7.582;2023-06-04T00:00:16;16.30;77.70
21678;DHT22;11000;50.360;7.582;2023-06-04T00:02:37;16.30;78.00
21678;DHT22;11000;50.360;7.582;2023-06-04T00:04:57;16.30;77.90
21678;DHT22;11000;50.360;7.582;2023-06-04T00:07:18;16.20;78.40
21678;DHT22;11000;50.360;7.582;2023-06-04T00:09:38;16.20;79.20
21678;DHT22;11000;50.360;7.582;2023-06-04T00:11:59;16.10;79.80
21678;DHT22;11000;50.360;7.582;2023-06-04T00:14:19;16.10;81.40
21678;DHT22;11000;50.360;7.582;2023-06-04T00:16:40;16.10;81.40
21678;DHT22;11000;50.360;7.582;2023-06-04T00:19:01;16.10;81.40
21678;DHT22;11000;50.360;7.582;2023-06-04T00:21:23;16.10;80.30
21678;DHT22;11000;50.360;7.582;2023-06-04T00:23:43;15.80;81.20
21678;DHT22;11000;50.360;7.582;2023-06-04T00:26:04;15.80;83.00
21678;DHT22;11000;50.360;7.582;2023-06-04T00:28:24;15.80;83.20
21678;DHT22;11000;50.360;7.582;2023-06-04T00:30:45;15.70;83.60
21678;DHT22;11000;50.360;7.582;2023-06-04T00:33:06;15.70;84.70
21678;DHT22;11000;50.360;7.582;2023-06-04T00:35:26;15.60;83.70
21678;DHT22;11000;50.360;7.582;2023-06-04T00:37:47;15.60;85.90
21678;DHT22;11000;50.360;7.582;2023-06-04T00:40:07;15.60;87.40
21678;DHT22;11000;50.360;7.582;2023-06-04T00:42:28;15.50;88.00
21678;DHT22;11000;50.360;7.582;2023-06-04T00:44:49;15.40;86.70
21678;DHT22;11000;50.360;7.582;2023-06-04T00:47:13;15.50;90.00
21678;DHT22;11000;50.360;7.582;2023-06-04T00:49:34;15.30;89.40
21678;DHT22;11000;50.360;7.582;2023-06-04T00:51:54;15.20;87.80
21678;DHT22;11000;50.360;7.582;2023-06-04T00:54:15;15.20;89.40
21678;DHT22;11000;50.360;7.582;2023-06-04T00:56:38;15.30;89.80
21678;DHT22;11000;50.360;7.582;2023-06-04T00:58:58;15.10;90.20
21678;DHT22;11000;50.360;7.582;2023-06-04T01:01:30;15.10;91.50
21678;DHT22;11000;50.360;7.582;2023-06-04T01:03:55;15.20;97.10
21678;DHT22;11000;50.360;7.582;2023-06-04T01:06:36;15.10;99.30
21678;DHT22;11000;50.360;7.582;2023-06-04T01:08:58;15.20;99.90
21678;DHT22;11000;50.360;7.582;2023-06-04T01:11:18;15.00;99.90
21678;DHT22;11000;50.360;7.582;2023-06-04T01:13:39;14.80;99.90
21678;DHT22;11000;50.360;7.582;2023-06-04T01:15:59;14.90;99.90
21678;DHT22;11000;50.360;7.582;2023-06-04T01:18:28;14.90;99.90
21678;DHT22;11000;50.360;7.582;2023-06-04T01:20:49;15.00;99.90
21678;DHT22;11000;50.360;7.582;2023-06-04T01:25:44;14.60;99.90
21678;DHT22;11000;50.360;7.582;2023-06-04T01:28:11;14.70;99.90
21678;DHT22;11000;50.360;7.582;2023-06-04T01:30:34;14.80;99.90
21678;DHT22;11000;50.360;7.582;2023-06-04T01:32:56;14.60;99.90
21678;DHT22;11000;50.360;7.582;2023-06-04T01:35:17;14.60;99.90
21678;DHT22;11000;50.360;7.582;2023-06-04T01:37:37;14.60;99.90
21678;DHT22;11000;50.360;7.582;2023-06-04T01:39:58;14.60;99.90
21678;DHT22;11000;50.360;7.582;2023-06-04T01:42:18;14.70;99.90
21678;DHT22;11000;50.360;7.582;2023-06-04T01:44:39;14.70;99.90
21678;DHT22;11000;50.360;7.582;2023-06-04T01:46:59;14.70;99.90
21678;DHT22;11000;50.360;7.582;2023-06-04T01:49:20;14.70;99.90
21678;DHT22;11000;50.360;7.582;2023-06-04T01:51:40;14.60;99.90
21678;DHT22;11000;50.360;7.582;2023-06-04T01:54:00;14.60;99.90
21678;DHT22;11000;50.360;7.582;2023-06-04T01:56:21;14.20;99.90
21678;DHT22;11000;50.360;7.582;2023-06-04T01:58:42;14.00;99.90
21678;DHT22;11000;50.360;7.582;2023-06-04T02:01:02;14.00;99.90
21678;DHT22;11000;50.360;7.582;2023-06-04T02:03:24;14.10;99.90
21678;DHT22;11000;50.360;7.582;2023-06-04T02:05:45;14.10;99.90
21678;DHT22;11000;50.360;7.582;2023-06-04T02:08:06;14.10;99.90
21678;DHT22;11000;50.360;7.582;2023-06-04T02:10:29;14.10;99.90
21678;DHT22;11000;50.360;7.582;2023-06-04T02:12:58;14.10;99.90
21678;DHT22;11000;50.360;7.582;2023-06-04T02:15:19;14.10;99.90
21678;DHT22;11000;50.360;7.582;2023-06-04T02:17:39;14.00;99.90
21678;DHT22;11000;50.360;7.582;2023-06-04T02:20:04;14.00;99.90
21678;DHT22;11000;50.360;7.582;2023-06-04T02:22:25;13.90;99.90
21678;DHT22;11000;50.360;7.582;2023-06-04T02:24:46;13.60;99.90
21678;DHT22;11000;50.360;7.582;2023-06-04T02:27:09;13.60;99.90
21678;DHT22;11000;50.360;7.582;2023-06-04T02:29:29;13.70;99.90
21678;DHT22;11000;50.360;7.582;2023-06-04T02:31:50;13.80;99.90
21678;DHT22;11000;50.360;7.582;2023-06-04T02:34:10;13.90;99.90
21678;DHT22;11000;50.360;7.582;2023-06-04T02:36:31;13.80;99.90
21678;DHT22;11000;50.360;7.582;2023-06-04T02:38:51;13.80;99.90
21678;DHT22;11000;50.360;7.582;2023-06-04T02:41:12;13.60;99.90
21678;DHT22;11000;50.360;7.582;2023-06-04T02:43:33;13.70;99.90
21678;DHT22;11000;50.360;7.582;2023-06-04T02:45:53;13.60;99.90
21678;DHT22;11000;50.360;7.582;2023-06-04T02:48:14;13.50;99.90
21678;DHT22;11000;50.360;7.582;2023-06-04T02:50:34;13.60;99.90
21678;DHT22;11000;50.360;7.582;2023-06-04T02:52:55;13.50;99.90
21678;DHT22;11000;50.360;7.582;2023-06-04T02:55:16;13.50;99.90
21678;DHT22;11000;50.360;7.582;2023-06-04T02:57:36;13.40;99.90
21678;DHT22;11000;50.360;7.582;2023-06-04T02:59:57;13.30;99.90
21678;DHT22;11000;50.360;7.582;2023-06-04T03:02:18;13.30;99.90
21678;DHT22;11000;50.360;7.582;2023-06-04T03:04:38;13.30;99.90
21678;DHT22;11000;50.360;7.582;2023-06-04T03:06:59;13.30;99.90
21678;DHT22;11000;50.360;7.582;2023-06-04T03:09:20;13.30;99.90
21678;DHT22;11000;50.360;7.582;2023-06-04T03:11:41;13.30;99.90
21678;DHT22;11000;50.360;7.582;2023-06-04T03:14:01;13.20;99.90
21678;DHT22;11000;50.360;7.582;2023-06-04T03:16:22;13.20;99.90
21678;DHT22;11000;50.360;7.582;2023-06-04T03:18:43;13.20;99.90
21678;DHT22;11000;50.360;7.582;2023-06-04T03:21:04;13.20;99.90
21678;DHT22;11000;50.360;7.582;2023-06-04T03:23:25;13.10;99.90
21678;DHT22;11000;50.360;7.582;2023-06-04T03:25:45;13.00;99.90
21678;DHT22;11000;50.360;7.582;2023-06-04T03:28:06;13.00;99.90
21678;DHT22;11000;50.360;7.582;2023-06-04T03:30:27;13.00;99.90
21678;DHT22;11000;50.360;7.582;2023-06-04T03:32:47;13.10;99.90
21678;DHT22;11000;50.360;7.582;2023-06-04T03:35:08;13.00;99.90
21678;DHT22;11000;50.360;7.582;2023-06-04T03:37:28;13.00;99.90
21678;DHT22;11000;50.360;7.582;2023-06-04T03:39:49;13.10;99.90
21678;DHT22;11000;50.360;7.582;2023-06-04T03:42:09;13.00;99.90
21678;DHT22;11000;50.360;7.582;2023-06-04T03:44:30;12.90;99.90
21678;DHT22;11000;50.360;7.582;2023-06-04T03:46:50;12.90;99.90
21678;DHT22;11000;50.360;7.582;2023-06-04T03:49:12;12.90;99.90
21678;DHT22;11000;50.360;7.582;2023-06-04T03:51:32;13.00;99.90
21678;DHT22;11000;50.360;7.582;2023-06-04T03:53:53;12.90;99.90
21678;DHT22;11000;50.360;7.582;2023-06-04T03:56:14;12.90;99.90
21678;DHT22;11000;50.360;7.582;2023-06-04T03:58:38;12.80;99.90
21678;DHT22;11000;50.360;7.582;2023-06-04T04:00:58;12.90;99.90
21678;DHT22;11000;50.360;7.582;2023-06-04T04:03:19;12.90;99.90
21678;DHT22;11000;50.360;7.582;2023-06-04T04:05:39;12.90;99.90
21678;DHT22;11000;50.360;7.582;2023-06-04T04:08:00;12.90;99.90
21678;DHT22;11000;50.360;7.582;2023-06-04T04:10:21;12.90;99.90
21678;DHT22;11000;50.360;7.582;2023-06-04T04:12:41;12.90;99.90
21678;DHT22;11000;50.360;7.582;2023-06-04T04:15:02;12.90;99.90
21678;DHT22;11000;50.360;7.582;2023-06-04T04:17:22;12.90;99.90
21678;DHT22;11000;50.360;7.582;2023-06-04T04:19:43;12.90;99.90
21678;DHT22;11000;50.360;7.582;2023-06-04T04:22:03;12.80;99.90
21678;DHT22;11000;50.360;7.582;2023-06-04T04:24:25;12.90;99.90
21678;DHT22;11000;50.360;7.582;2023-06-04T04:26:46;12.80;99.90
21678;DHT22;11000;50.360;7.582;2023-06-04T04:29:06;12.80;99.90
21678;DHT22;11000;50.360;7.582;2023-06-04T04:31:29;12.80;99.90
21678;DHT22;11000;50.360;7.582;2023-06-04T04:33:50;12.90;99.90
21678;DHT22;11000;50.360;7.582;2023-06-04T04:36:11;12.90;99.90
21678;DHT22;11000;50.360;7.582;2023-06-04T04:38:36;13.00;99.90
21678;DHT22;11000;50.360;7.582;2023-06-04T04:40:57;13.10;99.90
21678;DHT22;11000;50.360;7.582;2023-06-04T04:43:29;13.10;99.90
21678;DHT22;11000;50.360;7.582;2023-06-04T04:45:49;13.00;99.90
21678;DHT22;11000;50.360;7.582;2023-06-04T04:48:10;13.10;99.90
21678;DHT22;11000;50.360;7.582;2023-06-04T04:50:30;13.00;99.90
21678;DHT22;11000;50.360;7.582;2023-06-04T04:52:51;13.10;99.90
21678;DHT22;11000;50.360;7.582;2023-06-04T04:55:12;13.20;99.90
21678;DHT22;11000;50.360;7.582;2023-06-04T04:57:33;13.20;99.90
21678;DHT22;11000;50.360;7.582;2023-06-04T04:59:53;13.30;99.90
21678;DHT22;11000;50.360;7.582;2023-06-04T05:02:14;13.40;99.90
21678;DHT22;11000;50.360;7.582;2023-06-04T05:04:35;13.50;99.90
21678;DHT22;11000;50.360;7.582;2023-06-04T05:06:55;13.50;99.90
21678;DHT22;11000;50.360;7.582;2023-06-04T05:09:16;13.70;99.90
21678;DHT22;11000;50.360;7.582;2023-06-04T05:11:36;13.80;99.90
21678;DHT22;11000;50.360;7.582;2023-06-04T05:13:57;13.90;99.90
21678;DHT22;11000;50.360;7.582;2023-06-04T05:16:17;14.10;99.90
21678;DHT22;11000;50.360;7.582;2023-06-04T05:18:41;14.30;99.90
21678;DHT22;11000;50.360;7.582;2023-06-04T05:21:04;14.50;99.90
21678;DHT22;11000;50.360;7.582;2023-06-04T05:23:26;14.80;99.90
21678;DHT22;11000;50.360;7.582;2023-06-04T05:25:46;14.90;99.90
21678;DHT22;11000;50.360;7.582;2023-06-04T05:28:09;15.10;99.90
21678;DHT22;11000;50.360;7.582;2023-06-04T05:30:30;15.30;99.90
21678;DHT22;11000;50.360;7.582;2023-06-04T05:32:51;15.50;99.90
21678;DHT22;11000;50.360;7.582;2023-06-04T05:35:13;15.70;99.90
21678;DHT22;11000;50.360;7.582;2023-06-04T05:37:35;15.30;99.90
21678;DHT22;11000;50.360;7.582;2023-06-04T05:39:56;15.30;99.90
21678;DHT22;11000;50.360;7.582;2023-06-04T05:42:16;15.70;99.90
21678;DHT22;11000;50.360;7.582;2023-06-04T05:44:37;15.90;99.90
21678;DHT22;11000;50.360;7.582;2023-06-04T05:46:57;16.00;99.90
21678;DHT22;11000;50.360;7.582;2023-06-04T05:49:18;16.20;99.90
21678;DHT22;11000;50.360;7.582;2023-06-04T05:51:40;16.20;99.90
21678;DHT22;11000;50.360;7.582;2023-06-04T05:54:00;16.70;99.90
21678;DHT22;11000;50.360;7.582;2023-06-04T05:56:21;17.00;99.90
21678;DHT22;11000;50.360;7.582;2023-06-04T05:58:42;17.20;99.90
21678;DHT22;11000;50.360;7.582;2023-06-04T06:01:03;17.40;99.90
21678;DHT22;11000;50.360;7.582;2023-06-04T06:03:23;17.80;99.90
21678;DHT22;11000;50.360;7.582;2023-06-04T06:05:44;18.10;99.90
21678;DHT22;11000;50.360;7.582;2023-06-04T06:08:04;18.30;99.90
21678;DHT22;11000;50.360;7.582;2023-06-04T06:10:25;18.50;99.70
21678;DHT22;11000;50.360;7.582;2023-06-04T06:12:45;18.30;99.10
21678;DHT22;11000;50.360;7.582;2023-06-04T06:15:06;18.20;99.90
21678;DHT22;11000;50.360;7.582;2023-06-04T06:17:27;18.30;99.90
21678;DHT22;11000;50.360;7.582;2023-06-04T06:19:48;18.60;98.60
21678;DHT22;11000;50.360;7.582;2023-06-04T06:22:09;18.90;98.30
21678;DHT22;11000;50.360;7.582;2023-06-04T06:24:30;19.20;95.20
21678;DHT22;11000;50.360;7.582;2023-06-04T06:26:51;19.40;92.90
21678;DHT22;11000;50.360;7.582;2023-06-04T06:29:11;19.20;93.80
21678;DHT22;11000;50.360;7.582;2023-06-04T06:31:32;19.60;92.30
21678;DHT22;11000;50.360;7.582;2023-06-04T06:33:52;19.60;92.10
21678;DHT22;11000;50.360;7.582;2023-06-04T06:36:13;19.30;93.10
21678;DHT22;11000;50.360;7.582;2023-06-04T06:38:33;19.40;92.20
21678;DHT22;11000;50.360;7.582;2023-06-04T06:40:54;19.60;91.20
21678;DHT22;11000;50.360;7.582;2023-06-04T06:43:15;19.70;91.50
21678;DHT22;11000;50.360;7.582;2023-06-04T06:45:36;19.70;90.90
21678;DHT22;11000;50.360;7.582;2023-06-04T06:47:57;20.00;91.40
21678;DHT22;11000;50.360;7.582;2023-06-04T06:50:17;20.30;90.10
21678;DHT22;11000;50.360;7.582;2023-06-04T06:52:38;20.50;89.70
21678;DHT22;11000;50.360;7.582;2023-06-04T06:54:59;20.80;88.80
21678;DHT22;11000;50.360;7.582;2023-06-04T06:57:19;20.50;86.30
21678;DHT22;11000;50.360;7.582;2023-06-04T06:59:40;19.70;90.80
21678;DHT22;11000;50.360;7.582;2023-06-04T07:02:00;19.70;91.30
21678;DHT22;11000;50.360;7.582;2023-06-04T07:04:21;20.50;91.30
21678;DHT22;11000;50.360;7.582;2023-06-04T07:06:41;20.90;88.40
21678;DHT22;11000;50.360;7.582;2023-06-04T07:09:02;20.50;86.00
21678;DHT22;11000;50.360;7.582;2023-06-04T07:11:24;20.20;84.90
21678;DHT22;11000;50.360;7.582;2023-06-04T07:13:46;20.10;89.60
21678;DHT22;11000;50.360;7.582;2023-06-04T07:16:06;20.60;87.20
21678;DHT22;11000;50.360;7.582;2023-06-04T07:18:27;21.30;82.80
21678;DHT22;11000;50.360;7.582;2023-06-04T07:20:47;21.60;80.20
21678;DHT22;11000;50.360;7.582;2023-06-04T07:23:07;21.50;79.40
21678;DHT22;11000;50.360;7.582;2023-06-04T07:25:28;21.50;80.10
21678;DHT22;11000;50.360;7.582;2023-06-04T07:27:49;21.20;77.80
21678;DHT22;11000;50.360;7.582;2023-06-04T07:30:13;21.60;79.10
21678;DHT22;11000;50.360;7.582;2023-06-04T07:32:33;22.00;77.40
21678;DHT22;11000;50.360;7.582;2023-06-04T07:34:54;22.50;74.40
21678;DHT22;11000;50.360;7.582;2023-06-04T07:37:14;22.50;72.60
21678;DHT22;11000;50.360;7.582;2023-06-04T07:39:36;22.50;71.30
21678;DHT22;11000;50.360;7.582;2023-06-04T07:41:56;22.40;73.20
21678;DHT22;11000;50.360;7.582;2023-06-04T07:44:17;20.80;74.60
21678;DHT22;11000;50.360;7.582;2023-06-04T07:46:37;20.70;77.90
21678;DHT22;11000;50.360;7.582;2023-06-04T07:48:58;20.90;77.50
21678;DHT22;11000;50.360;7.582;2023-06-04T07:51:18;21.00;76.40
21678;DHT22;11000;50.360;7.582;2023-06-04T07:53:40;21.40;76.00
21678;DHT22;11000;50.360;7.582;2023-06-04T07:56:02;21.40;76.50
21678;DHT22;11000;50.360;7.582;2023-06-04T07:58:23;22.00;75.40
21678;DHT22;11000;50.360;7.582;2023-06-04T08:00:43;21.70;73.80
21678;DHT22;11000;50.360;7.582;2023-06-04T08:03:04;22.00;73.90
21678;DHT22;11000;50.360;7.582;2023-06-04T08:05:25;22.30;75.00
21678;DHT22;11000;50.360;7.582;2023-06-04T08:07:46;23.20;72.60
21678;DHT22;11000;50.360;7.582;2023-06-04T08:10:08;23.60;68.30
21678;DHT22;11000;50.360;7.582;2023-06-04T08:12:28;24.30;66.50
21678;DHT22;11000;50.360;7.582;2023-06-04T08:14:51;24.50;61.80
21678;DHT22;11000;50.360;7.582;2023-06-04T08:17:12;23.80;61.60
21678;DHT22;11000;50.360;7.582;2023-06-04T08:19:32;24.00;61.40
21678;DHT22;11000;50.360;7.582;2023-06-04T08:21:53;24.40;62.40
21678;DHT22;11000;50.360;7.582;2023-06-04T08:24:13;25.20;58.70
21678;DHT22;11000;50.360;7.582;2023-06-04T08:26:34;25.30;58.00
21678;DHT22;11000;50.360;7.582;2023-06-04T08:28:54;24.60;58.00
21678;DHT22;11000;50.360;7.582;2023-06-04T08:31:15;23.70;59.00
21678;DHT22;11000;50.360;7.582;2023-06-04T08:33:37;23.50;59.90
21678;DHT22;11000;50.360;7.582;2023-06-04T08:35:57;23.50;60.20
21678;DHT22;11000;50.360;7.582;2023-06-04T08:38:18;24.10;61.00
21678;DHT22;11000;50.360;7.582;2023-06-04T08:40:38;24.80;58.60
21678;DHT22;11000;50.360;7.582;2023-06-04T08:43:00;25.20;57.10
21678;DHT22;11000;50.360;7.582;2023-06-04T08:45:21;25.70;56.70
21678;DHT22;11000;50.360;7.582;2023-06-04T08:47:50;26.40;55.50
21678;DHT22;11000;50.360;7.582;2023-06-04T08:50:12;26.00;54.60
21678;DHT22;11000;50.360;7.582;2023-06-04T08:52:33;25.80;55.20
21678;DHT22;11000;50.360;7.582;2023-06-04T08:54:54;25.20;54.80
21678;DHT22;11000;50.360;7.582;2023-06-04T08:57:15;25.20;56.20
21678;DHT22;11000;50.360;7.582;2023-06-04T08:59:36;25.80;56.20
21678;DHT22;11000;50.360;7.582;2023-06-04T09:01:59;25.70;54.70
21678;DHT22;11000;50.360;7.582;2023-06-04T09:04:19;26.20;49.50
21678;DHT22;11000;50.360;7.582;2023-06-04T09:06:42;25.30;48.40
21678;DHT22;11000;50.360;7.582;2023-06-04T09:09:05;25.00;48.90
21678;DHT22;11000;50.360;7.582;2023-06-04T09:11:48;25.70;49.40
21678;DHT22;11000;50.360;7.582;2023-06-04T09:14:11;24.50;48.80
21678;DHT22;11000;50.360;7.582;2023-06-04T09:16:51;25.50;50.10
21678;DHT22;11000;50.360;7.582;2023-06-04T09:19:13;26.10;44.90
21678;DHT22;11000;50.360;7.582;2023-06-04T09:21:33;26.50;46.00
21678;DHT22;11000;50.360;7.582;2023-06-04T09:23:54;26.20;43.80
21678;DHT22;11000;50.360;7.582;2023-06-04T09:26:15;24.90;44.80
21678;DHT22;11000;50.360;7.582;2023-06-04T09:28:39;24.40;45.30
21678;DHT22;11000;50.360;7.582;2023-06-04T09:31:00;24.10;47.30
21678;DHT22;11000;50.360;7.582;2023-06-04T09:33:22;25.40;49.20
21678;DHT22;11000;50.360;7.582;2023-06-04T09:35:53;25.50;45.80
21678;DHT22;11000;50.360;7.582;2023-06-04T09:38:14;25.60;44.30
21678;DHT22;11000;50.360;7.582;2023-06-04T09:40:36;25.90;43.30
21678;DHT22;11000;50.360;7.582;2023-06-04T09:43:00;26.80;44.50
21678;DHT22;11000;50.360;7.582;2023-06-04T09:45:31;26.70;41.80
21678;DHT22;11000;50.360;7.582;2023-06-04T09:47:52;26.10;40.90
21678;DHT22;11000;50.360;7.582;2023-06-04T09:50:13;25.80;41.90
21678;DHT22;11000;50.360;7.582;2023-06-04T09:52:33;26.20;41.90
21678;DHT22;11000;50.360;7.582;2023-06-04T09:54:54;25.80;43.10
21678;DHT22;11000;50.360;7.582;2023-06-04T09:57:17;25.40;41.00
21678;DHT22;11000;50.360;7.582;2023-06-04T09:59:39;24.80;41.00
21678;DHT22;11000;50.360;7.582;2023-06-04T10:02:00;25.20;43.50
21678;DHT22;11000;50.360;7.582;2023-06-04T10:04:21;25.20;42.90
21678;DHT22;11000;50.360;7.582;2023-06-04T10:06:42;24.70;41.90
21678;DHT22;11000;50.360;7.582;2023-06-04T10:09:05;25.30;43.00
21678;DHT22;11000;50.360;7.582;2023-06-04T10:11:40;25.00;41.30
21678;DHT22;11000;50.360;7.582;2023-06-04T10:14:15;24.90;42.80
21678;DHT22;11000;50.360;7.582;2023-06-04T10:16:40;24.40;43.90
21678;DHT22;11000;50.360;7.582;2023-06-04T10:19:01;24.60;43.70
21678;DHT22;11000;50.360;7.582;2023-06-04T10:21:23;25.10;43.20
21678;DHT22;11000;50.360;7.582;2023-06-04T10:23:44;25.10;42.80
21678;DHT22;11000;50.360;7.582;2023-06-04T10:26:05;25.40;41.70
21678;DHT22;11000;50.360;7.582;2023-06-04T10:28:26;24.90;42.00
21678;DHT22;11000;50.360;7.582;2023-06-04T10:30:47;25.40;42.90
21678;DHT22;11000;50.360;7.582;2023-06-04T10:33:10;25.00;42.00
21678;DHT22;11000;50.360;7.582;2023-06-04T10:35:35;25.70;43.40
21678;DHT22;11000;50.360;7.582;2023-06-04T10:38:10;26.10;41.30
21678;DHT22;11000;50.360;7.582;2023-06-04T10:40:32;26.50;40.60
21678;DHT22;11000;50.360;7.582;2023-06-04T10:42:54;26.00;40.20
21678;DHT22;11000;50.360;7.582;2023-06-04T10:45:14;25.50;40.60
21678;DHT22;11000;50.360;7.582;2023-06-04T10:47:35;25.40;41.10
21678;DHT22;11000;50.360;7.582;2023-06-04T10:50:07;26.30;43.00
21678;DHT22;11000;50.360;7.582;2023-06-04T10:52:29;26.60;40.60
21678;DHT22;11000;50.360;7.582;2023-06-04T10:54:50;26.10;40.20
21678;DHT22;11000;50.360;7.582;2023-06-04T10:57:15;26.50;41.10
21678;DHT22;11000;50.360;7.582;2023-06-04T10:59:36;26.30;39.30
21678;DHT22;11000;50.360;7.582;2023-06-04T11:02:05;25.40;39.90
21678;DHT22;11000;50.360;7.582;2023-06-04T11:04:26;25.90;40.20
21678;DHT22;11000;50.360;7.582;2023-06-04T11:06:47;25.40;40.30
21678;DHT22;11000;50.360;7.582;2023-06-04T11:09:13;25.90;41.50
21678;DHT22;11000;50.360;7.582;2023-06-04T11:11:35;26.60;40.30
21678;DHT22;11000;50.360;7.582;2023-06-04T11:13:55;26.50;39.00
21678;DHT22;11000;50.360;7.582;2023-06-04T11:16:20;27.40;42.00
21678;DHT22;11000;50.360;7.582;2023-06-04T11:18:41;27.70;38.40
21678;DHT22;11000;50.360;7.582;2023-06-04T11:21:01;26.50;39.30
21678;DHT22;11000;50.360;7.582;2023-06-04T11:23:23;26.00;40.40
21678;DHT22;11000;50.360;7.582;2023-06-04T11:25:44;25.70;39.70
21678;DHT22;11000;50.360;7.582;2023-06-04T11:28:05;25.70;41.60
21678;DHT22;11000;50.360;7.582;2023-06-04T11:30:26;25.40;39.30
21678;DHT22;11000;50.360;7.582;2023-06-04T11:32:47;24.70;40.50
21678;DHT22;11000;50.360;7.582;2023-06-04T11:35:08;25.50;41.40
21678;DHT22;11000;50.360;7.582;2023-06-04T11:37:28;25.30;41.00
21678;DHT22;11000;50.360;7.582;2023-06-04T11:39:52;25.90;40.90
21678;DHT22;11000;50.360;7.582;2023-06-04T11:42:13;25.40;39.40
21678;DHT22;11000;50.360;7.582;2023-06-04T11:44:34;26.10;40.00
21678;DHT22;11000;50.360;7.582;2023-06-04T11:46:55;25.70;40.10
21678;DHT22;11000;50.360;7.582;2023-06-04T11:49:16;26.00;40.60
21678;DHT22;11000;50.360;7.582;2023-06-04T11:51:37;25.70;40.10
21678;DHT22;11000;50.360;7.582;2023-06-04T11:53:58;25.60;39.90
21678;DHT22;11000;50.360;7.582;2023-06-04T11:56:19;26.30;40.40
21678;DHT22;11000;50.360;7.582;2023-06-04T11:58:40;26.50;37.40
21678;DHT22;11000;50.360;7.582;2023-06-04T12:01:03;26.40;37.90
21678;DHT22;11000;50.360;7.582;2023-06-04T12:03:38;26.10;37.70
21678;DHT22;11000;50.360;7.582;2023-06-04T12:05:59;26.20;40.10
21678;DHT22;11000;50.360;7.582;2023-06-04T12:08:28;26.70;37.70
21678;DHT22;11000;50.360;7.582;2023-06-04T12:10:49;26.40;37.60
21678;DHT22;11000;50.360;7.582;2023-06-04T12:13:11;26.80;37.30
21678;DHT22;11000;50.360;7.582;2023-06-04T12:15:31;27.10;38.30
21678;DHT22;11000;50.360;7.582;2023-06-04T12:17:53;26.80;36.40
21678;DHT22;11000;50.360;7.582;2023-06-04T12:20:13;25.20;37.60
21678;DHT22;11000;50.360;7.582;2023-06-04T12:22:44;25.00;39.50
21678;DHT22;11000;50.360;7.582;2023-06-04T12:25:06;25.80;39.20
21678;DHT22;11000;50.360;7.582;2023-06-04T12:27:26;26.40;38.70
21678;DHT22;11000;50.360;7.582;2023-06-04T12:30:01;26.40;40.10
21678;DHT22;11000;50.360;7.582;2023-06-04T12:32:22;26.80;37.90
21678;DHT22;11000;50.360;7.582;2023-06-04T12:34:43;26.60;37.30
21678;DHT22;11000;50.360;7.582;2023-06-04T12:37:03;27.60;38.00
21678;DHT22;11000;50.360;7.582;2023-06-04T12:39:26;26.60;37.10
21678;DHT22;11000;50.360;7.582;2023-06-04T12:41:47;25.70;38.10
21678;DHT22;11000;50.360;7.582;2023-06-04T12:44:08;24.80;38.70
21678;DHT22;11000;50.360;7.582;2023-06-04T12:46:29;24.90;39.20
21678;DHT22;11000;50.360;7.582;2023-06-04T12:48:50;24.90;39.10
21678;DHT22;11000;50.360;7.582;2023-06-04T12:51:11;25.30;40.00
21678;DHT22;11000;50.360;7.582;2023-06-04T12:53:31;25.80;38.40
21678;DHT22;11000;50.360;7.582;2023-06-04T12:55:52;26.20;37.20
21678;DHT22;11000;50.360;7.582;2023-06-04T12:58:12;27.00;38.90
21678;DHT22;11000;50.360;7.582;2023-06-04T13:00:33;26.90;37.10
21678;DHT22;11000;50.360;7.582;2023-06-04T13:02:53;26.50;37.40
21678;DHT22;11000;50.360;7.582;2023-06-04T13:05:14;27.30;37.40
21678;DHT22;11000;50.360;7.582;2023-06-04T13:07:35;26.60;36.60
21678;DHT22;11000;50.360;7.582;2023-06-04T13:09:55;26.30;37.40
21678;DHT22;11000;50.360;7.582;2023-06-04T13:12:16;25.70;37.50
21678;DHT22;11000;50.360;7.582;2023-06-04T13:14:36;25.60;37.40
21678;DHT22;11000;50.360;7.582;2023-06-04T13:16:57;25.80;38.80
21678;DHT22;11000;50.360;7.582;2023-06-04T13:19:17;26.40;38.60
21678;DHT22;11000;50.360;7.582;2023-06-04T13:21:40;25.50;37.90
21678;DHT22;11000;50.360;7.582;2023-06-04T13:24:01;25.70;40.20
21678;DHT22;11000;50.360;7.582;2023-06-04T13:26:22;26.30;39.00
21678;DHT22;11000;50.360;7.582;2023-06-04T13:28:43;26.20;37.10
21678;DHT22;11000;50.360;7.582;2023-06-04T13:31:03;26.20;36.80
21678;DHT22;11000;50.360;7.582;2023-06-04T13:33:24;26.40;35.90
21678;DHT22;11000;50.360;7.582;2023-06-04T13:35:44;26.10;35.90
21678;DHT22;11000;50.360;7.582;2023-06-04T13:38:05;25.40;36.60
21678;DHT22;11000;50.360;7.582;2023-06-04T13:40:29;25.60;36.50
21678;DHT22;11000;50.360;7.582;2023-06-04T13:42:49;26.20;36.30
21678;DHT22;11000;50.360;7.582;2023-06-04T13:45:10;26.50;36.20
21678;DHT22;11000;50.360;7.582;2023-06-04T13:47:30;26.30;35.80
21678;DHT22;11000;50.360;7.582;2023-06-04T13:49:52;26.90;34.80
21678;DHT22;11000;50.360;7.582;2023-06-04T13:52:13;27.20;33.40
21678;DHT22;11000;50.360;7.582;2023-06-04T13:54:33;26.40;33.20
21678;DHT22;11000;50.360;7.582;2023-06-04T13:56:54;26.70;34.00
21678;DHT22;11000;50.360;7.582;2023-06-04T13:59:15;27.00;34.70
21678;DHT22;11000;50.360;7.582;2023-06-04T14:01:35;27.00;31.80
21678;DHT22;11000;50.360;7.582;2023-06-04T14:03:56;26.00;31.90
21678;DHT22;11000;50.360;7.582;2023-06-04T14:06:18;25.40;33.50
21678;DHT22;11000;50.360;7.582;2023-06-04T14:08:39;25.80;34.50
21678;DHT22;11000;50.360;7.582;2023-06-04T14:10:59;26.10;33.10
21678;DHT22;11000;50.360;7.582;2023-06-04T14:13:20;25.70;33.60
21678;DHT22;11000;50.360;7.582;2023-06-04T14:15:40;26.30;33.60
21678;DHT22;11000;50.360;7.582;2023-06-04T14:18:01;25.70;31.50
21678;DHT22;11000;50.360;7.582;2023-06-04T14:20:22;25.70;32.90
21678;DHT22;11000;50.360;7.582;2023-06-04T14:22:42;25.50;33.00
21678;DHT22;11000;50.360;7.582;2023-06-04T14:25:06;25.30;34.20
21678;DHT22;11000;50.360;7.582;2023-06-04T14:27:27;25.30;34.80
21678;DHT22;11000;50.360;7.582;2023-06-04T14:29:48;25.20;34.60
21678;DHT22;11000;50.360;7.582;2023-06-04T14:32:08;25.70;35.00
21678;DHT22;11000;50.360;7.582;2023-06-04T14:34:29;25.10;34.90
21678;DHT22;11000;50.360;7.582;2023-06-04T14:36:50;25.70;36.90
21678;DHT22;11000;50.360;7.582;2023-06-04T14:39:11;26.10;35.40
21678;DHT22;11000;50.360;7.582;2023-06-04T14:41:31;26.60;33.60
21678;DHT22;11000;50.360;7.582;2023-06-04T14:43:52;26.60;32.40
21678;DHT22;11000;50.360;7.582;2023-06-04T14:46:12;26.50;32.50
21678;DHT22;11000;50.360;7.582;2023-06-04T14:48:33;26.30;34.30
21678;DHT22;11000;50.360;7.582;2023-06-04T14:50:54;26.60;33.30
21678;DHT22;11000;50.360;7.582;2023-06-04T14:53:15;26.90;33.30
21678;DHT22;11000;50.360;7.582;2023-06-04T14:55:36;26.70;31.40